Time;durP1;ratioP1;P1;durP2;ratioP2;P2;SDS_P1;SDS_P2;PMS_P1;PMS_P2;Temp;Humidity;BMP_temperature;BMP_pressure;BME280_temperature;BME280_humidity;BME280_pressure;Samples;Min_cycle;Max_cycle;Signal;HPM_P1;HPM_P2
2023/01/22 00:00:36;;;;;;;21.98;12.43;;;2.70;79.60;;;;;;4905074;29;20220;-80
2023/01/22 00:03:04;;;;;;;24.58;13.63;;;2.80;79.60;;;;;;4911194;29;20205;-80
2023/01/22 00:05:32;;;;;;;20.17;12.02;;;2.80;79.60;;;;;;4905611;29;20227;-81
2023/01/22 00:08:01;;;;;;;22.85;12.27;;;2.80;79.80;;;;;;4909441;29;20300;-81
2023/01/22 00:10:29;;;;;;;22.73;12.00;;;2.80;79.80;;;;;;4904029;29;20228;-80
2023/01/22 00:12:58;;;;;;;19.83;11.77;;;2.80;79.80;;;;;;4901587;29;20243;-80
2023/01/22 00:15:26;;;;;;;24.17;12.32;;;2.80;79.80;;;;;;4909937;29;20931;-84
2023/01/22 00:17:54;;;;;;;28.83;12.48;;;2.80;79.80;;;;;;4914532;29;20243;-81
2023/01/22 00:20:22;;;;;;;22.83;12.82;;;2.80;79.80;;;;;;4901225;29;20226;-81
2023/01/22 00:22:50;;;;;;;19.88;11.82;;;2.90;79.70;;;;;;4912018;29;20957;-81
2023/01/22 00:25:18;;;;;;;20.10;11.55;;;2.90;79.70;;;;;;4924937;29;20208;-81
2023/01/22 00:27:47;;;;;;;21.67;11.88;;;2.80;79.80;;;;;;4903097;29;20225;-82
2023/01/22 00:30:17;;;;;;;18.58;11.27;;;2.90;79.70;;;;;;4891526;29;20666;-81
2023/01/22 00:32:46;;;;;;;19.10;11.88;;;2.90;79.70;;;;;;4884929;29;20213;-81
2023/01/22 00:35:14;;;;;;;17.83;10.70;;;2.90;79.70;;;;;;4891480;29;20216;-80
2023/01/22 00:37:41;;;;;;;25.52;11.05;;;2.90;79.80;;;;;;4905829;29;20225;-80
2023/01/22 00:40:11;;;;;;;26.00;12.68;;;2.90;79.80;;;;;;4913908;29;20713;-80
2023/01/22 00:42:39;;;;;;;19.30;11.82;;;2.90;79.70;;;;;;4904324;29;20214;-81
2023/01/22 00:45:07;;;;;;;20.25;11.18;;;2.90;79.80;;;;;;4908349;29;20205;-81
2023/01/22 00:47:37;;;;;;;23.48;12.07;;;2.90;79.80;;;;;;4902033;29;20223;-80
2023/01/22 00:50:06;;;;;;;21.10;10.77;;;2.90;79.80;;;;;;4907453;29;20245;-80
2023/01/22 00:52:36;;;;;;;22.85;12.23;;;2.90;79.60;;;;;;4916803;29;20323;-80
2023/01/22 00:55:05;;;;;;;20.55;12.00;;;2.80;79.80;;;;;;4907419;29;20995;-80
2023/01/22 00:57:33;;;;;;;18.55;12.18;;;2.80;79.80;;;;;;4889148;29;20242;-79
2023/01/22 01:00:01;;;;;;;17.85;10.63;;;2.80;80.00;;;;;;4908529;29;20845;-82
2023/01/22 01:02:30;;;;;;;17.98;11.40;;;2.80;80.00;;;;;;4895073;29;20201;-80
2023/01/22 01:05:00;;;;;;;18.63;11.13;;;2.90;79.90;;;;;;4895058;29;20752;-81
2023/01/22 01:07:28;;;;;;;19.25;10.98;;;2.90;79.90;;;;;;4912222;29;20255;-83
2023/01/22 01:09:56;;;;;;;19.08;11.45;;;2.90;80.00;;;;;;4898993;29;20265;-79
2023/01/22 01:12:24;;;;;;;15.73;9.90;;;2.90;79.90;;;;;;4892279;29;20221;-79
2023/01/22 01:14:54;;;;;;;17.63;10.55;;;2.90;79.90;;;;;;4893960;29;20224;-80
2023/01/22 01:17:23;;;;;;;15.90;9.10;;;2.90;80.00;;;;;;4909458;29;20591;-80
2023/01/22 01:19:51;;;;;;;18.90;11.23;;;2.90;80.00;;;;;;4911849;29;20197;-80
2023/01/22 01:22:20;;;;;;;16.08;9.55;;;2.90;80.00;;;;;;4910291;29;20763;-79
2023/01/22 01:24:48;;;;;;;14.45;8.98;;;2.90;80.00;;;;;;4912456;29;20216;-79
2023/01/22 01:27:16;;;;;;;16.10;10.18;;;2.90;80.00;;;;;;4895284;29;20241;-79
2023/01/22 01:29:44;;;;;;;18.73;10.30;;;2.90;80.00;;;;;;4902179;29;20281;-81
2023/01/22 01:32:12;;;;;;;20.85;10.77;;;2.90;80.00;;;;;;4901909;29;20678;-82
2023/01/22 01:34:40;;;;;;;17.73;9.60;;;2.90;80.10;;;;;;4917806;29;20197;-80
2023/01/22 01:37:08;;;;;;;18.90;11.05;;;2.90;80.10;;;;;;4893769;29;20292;-80
2023/01/22 01:39:37;;;;;;;18.05;11.18;;;2.90;80.00;;;;;;4909656;29;20208;-80
2023/01/22 01:42:05;;;;;;;21.05;11.48;;;2.90;79.90;;;;;;4911964;29;20626;-79
2023/01/22 01:44:33;;;;;;;23.48;12.65;;;2.90;80.00;;;;;;4910097;29;20204;-80
2023/01/22 01:47:05;;;;;;;20.30;10.50;;;2.90;80.00;;;;;;4901321;29;20263;-79
2023/01/22 01:49:37;;;;;;;14.55;9.65;;;2.90;80.10;;;;;;4895827;29;20635;-80
2023/01/22 01:52:10;;;;;;;18.00;9.50;;;2.90;80.10;;;;;;4908805;29;20279;-81
2023/01/22 01:54:42;;;;;;;19.67;10.45;;;2.90;80.10;;;;;;4890474;29;20251;-81
2023/01/22 01:57:14;;;;;;;18.88;10.05;;;2.90;80.10;;;;;;4891671;29;20307;-81
2023/01/22 01:59:45;;;;;;;20.00;11.23;;;2.90;80.10;;;;;;4909974;29;20299;-80
2023/01/22 02:02:13;;;;;;;20.25;10.73;;;2.90;80.10;;;;;;4911753;29;20248;-81
2023/01/22 02:04:41;;;;;;;13.95;8.57;;;2.90;80.10;;;;;;4909508;29;20294;-81
2023/01/22 02:07:09;;;;;;;15.13;9.15;;;2.90;80.00;;;;;;4909503;29;20226;-79
2023/01/22 02:09:37;;;;;;;16.05;10.43;;;2.90;80.10;;;;;;4905194;29;20284;-80
2023/01/22 02:12:07;;;;;;;18.42;10.77;;;2.90;80.20;;;;;;4898393;29;20201;-81
2023/01/22 02:14:39;;;;;;;21.27;9.68;;;2.90;80.10;;;;;;4900410;29;20225;-80
2023/01/22 02:17:10;;;;;;;21.92;12.23;;;2.90;80.10;;;;;;4893653;29;20244;-80
2023/01/22 02:19:38;;;;;;;21.33;11.15;;;2.90;80.20;;;;;;4890821;29;20213;-81
2023/01/22 02:22:13;;;;;;;19.83;11.00;;;3.00;80.20;;;;;;4900009;29;20238;-81
2023/01/22 02:24:41;;;;;;;15.65;9.00;;;3.00;80.20;;;;;;4909411;29;20204;-81
2023/01/22 02:27:09;;;;;;;12.30;7.65;;;3.00;80.30;;;;;;4911729;29;20225;-81
2023/01/22 02:29:38;;;;;;;11.50;7.38;;;3.00;80.20;;;;;;4907537;29;20213;-80
2023/01/22 02:32:08;;;;;;;18.48;9.68;;;3.00;80.20;;;;;;4904444;29;20215;-80
2023/01/22 02:34:37;;;;;;;18.40;9.63;;;3.00;80.20;;;;;;4896739;29;20235;-80
2023/01/22 02:37:06;;;;;;;16.15;9.18;;;3.00;80.20;;;;;;4909761;29;20236;-81
2023/01/22 02:39:36;;;;;;;11.90;7.10;;;3.00;80.20;;;;;;4910849;29;20296;-81
2023/01/22 02:42:07;;;;;;;12.35;8.73;;;3.00;80.30;;;;;;4890637;29;20214;-80
2023/01/22 02:44:36;;;;;;;13.73;7.95;;;3.00;80.20;;;;;;4891128;29;20292;-80
2023/01/22 02:47:05;;;;;;;14.00;8.35;;;3.00;80.20;;;;;;4904316;29;20232;-80
2023/01/22 02:49:34;;;;;;;15.13;8.00;;;3.00;80.10;;;;;;4899620;29;20198;-80
2023/01/22 02:52:01;;;;;;;12.73;8.38;;;3.00;80.20;;;;;;4895996;29;20205;-81
2023/01/22 02:54:30;;;;;;;13.15;7.45;;;3.00;80.20;;;;;;4892396;29;20308;-81
2023/01/22 02:57:00;;;;;;;11.48;7.50;;;3.00;80.30;;;;;;4890002;29;20633;-81
2023/01/22 02:59:28;;;;;;;16.67;7.60;;;3.10;80.30;;;;;;4901978;29;20236;-80
2023/01/22 03:01:57;;;;;;;11.60;7.10;;;3.00;80.20;;;;;;4893412;29;20832;-80
2023/01/22 03:04:27;;;;;;;12.93;6.97;;;3.00;80.20;;;;;;4904944;29;20208;-80
2023/01/22 03:06:55;;;;;;;21.83;11.90;;;3.00;80.30;;;;;;4906412;29;20234;-80
2023/01/22 03:09:27;;;;;;;22.17;12.45;;;3.00;80.10;;;;;;4884284;29;20717;-80
2023/01/22 03:11:56;;;;;;;13.82;8.50;;;3.00;80.10;;;;;;4903128;29;20216;-81
2023/01/22 03:22:47;;;;;;;13.68;7.10;;;3.00;80.40;;;;;;4897276;29;20216;-82
2023/01/22 03:25:16;;;;;;;9.63;6.53;;;3.00;80.30;;;;;;4901694;29;20204;-80
2023/01/22 03:30:29;;;;;;;10.20;6.55;;;3.00;80.30;;;;;;4893945;29;20933;-81
2023/01/22 03:32:57;;;;;;;15.25;7.35;;;3.00;80.30;;;;;;4893789;29;20273;-81
2023/01/22 03:35:25;;;;;;;15.00;7.65;;;3.00;80.10;;;;;;4906085;29;20332;-81
2023/01/22 03:38:07;;;;;;;25.27;8.70;;;2.90;80.00;;;;;;4906995;29;20317;-80
2023/01/22 03:40:35;;;;;;;15.27;7.57;;;2.90;80.30;;;;;;4899761;29;20296;-82
2023/01/22 03:43:03;;;;;;;11.48;6.22;;;2.90;80.40;;;;;;4893481;29;20228;-82
2023/01/22 03:45:34;;;;;;;13.68;7.43;;;3.00;80.40;;;;;;4892998;29;20269;-81
2023/01/22 03:48:04;;;;;;;9.65;6.10;;;3.00;80.50;;;;;;4889736;29;20327;-80
2023/01/22 03:50:37;;;;;;;10.30;6.20;;;3.00;80.30;;;;;;4919385;29;20227;-81
2023/01/22 03:53:05;;;;;;;8.70;6.25;;;2.90;80.30;;;;;;4898929;29;20244;-81
2023/01/22 03:55:33;;;;;;;8.52;5.95;;;3.00;80.40;;;;;;4888250;29;20230;-82
2023/01/22 03:58:02;;;;;;;10.10;5.75;;;3.00;80.50;;;;;;4906480;29;20259;-80
2023/01/22 04:00:30;;;;;;;10.32;6.28;;;3.00;80.60;;;;;;4911130;29;20205;-81
2023/01/22 04:03:00;;;;;;;8.40;5.50;;;3.00;80.50;;;;;;4913662;29;20204;-84
2023/01/22 04:05:34;;;;;;;9.65;6.15;;;3.10;80.50;;;;;;4903386;29;20202;-82
2023/01/22 04:08:02;;;;;;;8.85;5.82;;;3.10;80.50;;;;;;4890718;29;20288;-83
2023/01/22 04:10:32;;;;;;;9.93;5.63;;;3.10;80.50;;;;;;4894827;29;20291;-80
2023/01/22 04:13:02;;;;;;;8.30;5.30;;;3.10;80.50;;;;;;4893251;29;20209;-81
2023/01/22 04:15:30;;;;;;;9.07;5.65;;;3.10;80.50;;;;;;4901782;29;20213;-81
2023/01/22 04:18:02;;;;;;;9.00;5.50;;;3.10;80.50;;;;;;4920356;29;20261;-83
2023/01/22 04:20:59;;;;;;;7.85;5.10;;;3.10;80.50;;;;;;4891846;29;20271;-84
2023/01/22 04:23:39;;;;;;;6.97;4.80;;;3.10;80.50;;;;;;4896151;29;20736;-81
2023/01/22 04:26:07;;;;;;;7.55;5.13;;;3.10;80.50;;;;;;4891619;29;20209;-82
2023/01/22 04:28:35;;;;;;;8.80;5.45;;;3.20;80.50;;;;;;4906549;29;20239;-82
2023/01/22 04:31:04;;;;;;;6.72;4.28;;;3.10;80.50;;;;;;4916464;29;20287;-81
2023/01/22 04:33:59;;;;;;;13.95;4.72;;;3.10;80.40;;;;;;4914050;29;20293;-80
2023/01/22 04:36:31;;;;;;;8.15;5.05;;;3.10;80.40;;;;;;4889866;29;20210;-82
2023/01/22 04:39:00;;;;;;;7.82;4.50;;;3.10;80.40;;;;;;4899102;29;20197;-81
2023/01/22 04:41:28;;;;;;;9.02;5.25;;;3.10;80.50;;;;;;4920867;29;20203;-82
2023/01/22 04:43:56;;;;;;;9.65;4.65;;;3.10;80.40;;;;;;4895002;29;20217;-79
2023/01/22 04:46:25;;;;;;;6.80;4.25;;;3.20;80.40;;;;;;4903334;29;20691;-81
2023/01/22 04:48:53;;;;;;;10.00;5.03;;;3.20;80.40;;;;;;4894210;29;20236;-81
2023/01/22 04:51:23;;;;;;;7.55;4.80;;;3.20;80.50;;;;;;4892347;29;20383;-80
2023/01/22 04:53:51;;;;;;;7.60;5.07;;;3.20;80.50;;;;;;4908456;29;20633;-80
2023/01/22 04:56:19;;;;;;;8.35;5.40;;;3.20;80.40;;;;;;4905318;29;20256;-81
2023/01/22 04:58:48;;;;;;;7.28;4.38;;;3.20;80.30;;;;;;4892754;29;20217;-81
2023/01/22 05:01:16;;;;;;;8.20;4.47;;;3.10;80.40;;;;;;4898430;29;20260;-80
2023/01/22 05:03:45;;;;;;;7.38;3.97;;;3.20;80.40;;;;;;4908895;29;20261;-82
2023/01/22 05:06:13;;;;;;;11.05;5.47;;;3.10;80.30;;;;;;4912498;29;20261;-81
2023/01/22 05:08:42;;;;;;;7.45;4.30;;;3.10;80.40;;;;;;4906826;29;20237;-80
2023/01/22 05:11:10;;;;;;;7.35;3.83;;;3.10;80.40;;;;;;4909700;29;20206;-78
2023/01/22 05:13:48;;;;;;;6.50;4.30;;;3.10;80.50;;;;;;4894991;29;20205;-80
2023/01/22 05:16:17;;;;;;;6.43;4.55;;;3.10;80.50;;;;;;4894770;29;20325;-81
2023/01/22 05:18:45;;;;;;;7.57;4.63;;;3.20;80.50;;;;;;4905348;29;20221;-81
2023/01/22 05:21:12;;;;;;;7.28;4.68;;;3.20;80.50;;;;;;4895612;29;20214;-81
2023/01/22 05:23:43;;;;;;;7.18;4.70;;;3.20;80.50;;;;;;4910619;29;20883;-81
2023/01/22 05:26:11;;;;;;;10.02;4.65;;;3.20;80.40;;;;;;4908641;29;20203;-82
2023/01/22 05:28:42;;;;;;;10.93;4.95;;;3.20;80.40;;;;;;4886546;29;20236;-81
2023/01/22 05:31:31;;;;;;;8.18;5.05;;;3.20;80.50;;;;;;4905015;29;20909;-81
2023/01/22 05:34:01;;;;;;;6.43;4.50;;;3.20;80.50;;;;;;4912334;29;20212;-81
2023/01/22 05:36:30;;;;;;;8.60;4.28;;;3.20;80.40;;;;;;4911486;29;20209;-81
2023/01/22 05:39:05;;;;;;;8.85;4.43;;;3.20;80.30;;;;;;4904855;29;20216;-80
2023/01/22 05:41:34;;;;;;;7.72;4.55;;;3.20;80.40;;;;;;4902286;29;20310;-82
2023/01/22 05:44:02;;;;;;;6.63;4.40;;;3.20;80.40;;;;;;4901494;29;20237;-81
2023/01/22 05:46:30;;;;;;;8.10;4.60;;;3.20;80.40;;;;;;4907221;29;20207;-81
2023/01/22 05:49:06;;;;;;;6.30;3.50;;;3.20;80.40;;;;;;4910654;29;20569;-81
2023/01/22 05:51:34;;;;;;;7.07;4.75;;;3.20;80.40;;;;;;4905981;29;20254;-80
2023/01/22 05:54:02;;;;;;;7.53;4.20;;;3.20;80.40;;;;;;4908717;29;20212;-80
2023/01/22 05:56:34;;;;;;;6.95;4.45;;;3.20;80.30;;;;;;4892515;29;20209;-81
2023/01/22 05:59:02;;;;;;;7.55;4.50;;;3.20;80.40;;;;;;4891171;29;20202;-80
2023/01/22 06:01:30;;;;;;;7.30;4.15;;;3.20;80.40;;;;;;4902770;29;20202;-81
2023/01/22 06:03:59;;;;;;;7.60;4.70;;;3.20;80.40;;;;;;4909900;29;20589;-81
2023/01/22 06:06:27;;;;;;;17.08;4.47;;;3.20;80.40;;;;;;4895906;29;20318;-81
2023/01/22 06:08:55;;;;;;;8.45;5.03;;;3.20;80.40;;;;;;4895881;29;20578;-81
2023/01/22 06:11:27;;;;;;;6.35;4.20;;;3.20;80.30;;;;;;4891443;29;20289;-81
2023/01/22 06:13:57;;;;;;;7.95;4.80;;;3.20;80.30;;;;;;4884395;29;20304;-82
2023/01/22 06:16:25;;;;;;;7.25;4.82;;;3.10;80.20;;;;;;4902755;29;20292;-81
2023/01/22 06:19:09;;;;;;;6.78;4.70;;;3.10;80.30;;;;;;4909122;29;20930;-82
2023/01/22 06:21:53;;;;;;;8.10;5.30;;;3.10;80.20;;;;;;4895705;29;20323;-81
2023/01/22 06:24:44;;;;;;;7.97;5.00;;;3.00;80.20;;;;;;4908433;29;20272;-82
2023/01/22 06:27:14;;;;;;;11.38;6.20;;;3.00;80.30;;;;;;4917046;29;20229;-80
2023/01/22 06:29:54;;;;;;;9.52;5.40;;;3.00;80.40;;;;;;4896209;29;20663;-79
2023/01/22 06:32:22;;;;;;;9.13;5.72;;;2.90;80.40;;;;;;4900584;29;20674;-81
2023/01/22 06:34:51;;;;;;;8.95;5.60;;;2.90;80.40;;;;;;4911641;29;20216;-82
2023/01/22 06:37:21;;;;;;;7.68;4.80;;;2.90;80.40;;;;;;4896860;29;20275;-81
2023/01/22 06:39:50;;;;;;;8.90;5.60;;;2.90;80.50;;;;;;4902995;29;20223;-81
2023/01/22 06:42:22;;;;;;;9.25;5.18;;;2.80;80.50;;;;;;4887622;29;20210;-80
2023/01/22 06:44:51;;;;;;;8.82;5.40;;;2.70;80.60;;;;;;4896961;29;20197;-81
2023/01/22 06:47:25;;;;;;;9.15;4.90;;;2.70;80.70;;;;;;4895571;29;20245;-81
2023/01/22 06:49:53;;;;;;;6.40;4.28;;;2.70;80.90;;;;;;4890274;29;20767;-81
2023/01/22 06:52:21;;;;;;;7.43;5.03;;;2.60;80.80;;;;;;4899677;29;20343;-81
2023/01/22 06:54:49;;;;;;;7.43;5.00;;;2.50;81.20;;;;;;4908171;29;20228;-80
2023/01/22 06:57:16;;;;;;;7.40;5.00;;;2.50;81.10;;;;;;4892169;29;20236;-80
2023/01/22 06:59:44;;;;;;;7.40;4.88;;;2.50;81.30;;;;;;4911214;29;20209;-81
2023/01/22 07:02:16;;;;;;;6.82;4.95;;;2.50;81.20;;;;;;4893298;29;20260;-81
2023/01/22 07:04:45;;;;;;;11.25;6.88;;;2.60;81.30;;;;;;4907413;29;20205;-81
2023/01/22 07:07:14;;;;;;;26.88;11.30;;;2.60;81.30;;;;;;4905208;29;20225;-81
2023/01/22 07:09:42;;;;;;;14.63;9.65;;;2.60;81.30;;;;;;4892226;29;20257;-81
2023/01/22 07:12:10;;;;;;;23.92;12.40;;;2.60;81.30;;;;;;4909179;29;20213;-81
2023/01/22 07:14:38;;;;;;;28.17;16.75;;;2.60;81.50;;;;;;4914176;29;20199;-81
2023/01/22 07:17:06;;;;;;;19.52;12.68;;;2.60;81.50;;;;;;4913047;29;20240;-81
2023/01/22 07:19:34;;;;;;;17.77;11.73;;;2.60;81.50;;;;;;4903442;29;20451;-81
2023/01/22 07:22:05;;;;;;;24.92;13.20;;;2.60;81.60;;;;;;4893666;29;20229;-81
2023/01/22 07:24:33;;;;;;;18.38;10.10;;;2.60;81.60;;;;;;4917111;29;20715;-83
2023/01/22 07:27:01;;;;;;;18.40;10.05;;;2.60;81.60;;;;;;4910778;29;20228;-83
2023/01/22 07:29:29;;;;;;;25.63;12.50;;;2.60;81.60;;;;;;4916089;29;20283;-81
2023/01/22 07:31:57;;;;;;;24.90;11.40;;;2.60;81.60;;;;;;4908014;29;20201;-80
2023/01/22 07:34:25;;;;;;;21.92;12.45;;;2.60;81.70;;;;;;4910972;29;20206;-81
2023/01/22 07:36:53;;;;;;;13.68;7.00;;;2.60;81.70;;;;;;4908224;29;20240;-80
2023/01/22 07:39:22;;;;;;;19.13;8.68;;;2.60;81.80;;;;;;4918497;29;20619;-82
2023/01/22 07:41:50;;;;;;;25.33;11.30;;;2.60;81.80;;;;;;4906756;29;20214;-82
2023/01/22 07:44:18;;;;;;;17.83;7.63;;;2.60;81.80;;;;;;4908103;29;20210;-82
2023/01/22 07:46:46;;;;;;;23.95;11.48;;;2.60;81.90;;;;;;4911652;29;20224;-82
2023/01/22 07:49:14;;;;;;;29.98;13.93;;;2.60;81.90;;;;;;4907755;29;20223;-81
2023/01/22 07:51:42;;;;;;;45.17;21.00;;;2.60;81.90;;;;;;4912621;29;20201;-81
2023/01/22 07:54:10;;;;;;;43.70;20.70;;;2.60;82.00;;;;;;4916794;29;20208;-81
2023/01/22 07:56:39;;;;;;;25.52;13.23;;;2.70;81.80;;;;;;4913782;29;20761;-80
2023/01/22 07:59:07;;;;;;;17.15;8.25;;;2.70;81.90;;;;;;4892856;29;20577;-82
2023/01/22 08:01:37;;;;;;;25.25;10.50;;;2.60;81.90;;;;;;4890702;29;21292;-83
2023/01/22 08:04:05;;;;;;;11.80;7.53;;;2.60;82.20;;;;;;4908053;29;20281;-81
2023/01/22 08:06:33;;;;;;;19.02;9.55;;;2.60;82.10;;;;;;4910067;29;20212;-82
2023/01/22 08:09:01;;;;;;;15.73;7.43;;;2.70;82.40;;;;;;4915301;29;20864;-82
2023/01/22 08:11:29;;;;;;;13.88;8.05;;;2.70;82.20;;;;;;4917965;29;20197;-83
2023/01/22 08:13:58;;;;;;;12.82;8.15;;;2.70;82.10;;;;;;4905805;29;20197;-81
2023/01/22 08:16:31;;;;;;;15.90;10.27;;;2.70;82.20;;;;;;4900234;29;20916;-82
2023/01/22 08:19:04;;;;;;;213.75;77.20;;;2.70;82.10;;;;;;4903013;29;20296;-83
2023/01/22 08:21:40;;;;;;;112.97;53.05;;;2.70;82.10;;;;;;4888148;29;20299;-84
2023/01/22 08:27:26;;;;;;;23.70;20.08;;;2.70;82.40;;;;;;4904713;29;20232;-84
2023/01/22 08:34:23;;;;;;;18.15;11.70;;;2.80;82.60;;;;;;4913720;29;20207;-83
2023/01/22 08:36:53;;;;;;;10.95;8.30;;;2.80;82.50;;;;;;4911259;29;20251;-84
2023/01/22 08:39:46;;;;;;;16.83;8.90;;;2.90;82.50;;;;;;4896098;29;20210;-84
2023/01/22 08:47:26;;;;;;;16.90;9.68;;;3.10;82.70;;;;;;4907505;29;20789;-84
2023/01/22 08:50:32;;;;;;;13.48;7.20;;;3.20;82.70;;;;;;4885193;29;20209;-84
2023/01/22 08:57:59;;;;;;;10.35;6.45;;;3.30;82.60;;;;;;4874505;29;20253;-84
2023/01/22 09:01:21;;;;;;;9.40;6.57;;;3.40;82.40;;;;;;4885031;29;20219;-84
2023/01/22 09:06:58;;;;;;;13.60;7.80;;;3.40;82.20;;;;;;4873968;29;20249;-85
2023/01/22 09:09:30;;;;;;;13.50;6.93;;;3.40;82.20;;;;;;4883972;29;20898;-85
2023/01/22 09:16:37;;;;;;;14.10;7.57;;;3.40;82.30;;;;;;4879970;29;20261;-86
2023/01/22 09:22:44;;;;;;;15.77;7.93;;;3.50;82.40;;;;;;4896346;29;20218;-84
2023/01/22 09:25:38;;;;;;;14.90;6.90;;;3.50;82.40;;;;;;4891293;29;20304;-85
2023/01/22 09:28:11;;;;;;;10.18;6.30;;;3.60;82.50;;;;;;4893826;29;20961;-85
2023/01/22 09:31:49;;;;;;;14.75;10.10;;;3.60;82.40;;;;;;4892614;29;20217;-86
2023/01/22 09:34:36;;;;;;;15.52;9.35;;;3.60;82.20;;;;;;4894746;29;20243;-85
2023/01/22 09:37:13;;;;;;;14.25;8.43;;;3.60;82.10;;;;;;4892769;29;20240;-84
2023/01/22 09:39:52;;;;;;;13.43;6.95;;;3.50;82.10;;;;;;4909539;29;20229;-82
2023/01/22 09:42:27;;;;;;;15.27;7.45;;;3.50;82.10;;;;;;4886004;29;20224;-83
2023/01/22 09:45:01;;;;;;;10.18;6.75;;;3.50;82.00;;;;;;4908632;29;20257;-83
2023/01/22 09:47:46;;;;;;;39.10;20.65;;;3.40;82.00;;;;;;4888567;29;20233;-83
2023/01/22 09:50:20;;;;;;;54.60;19.20;;;3.40;82.20;;;;;;4891043;29;20679;-82
2023/01/22 09:55:43;;;;;;;20.10;10.40;;;3.50;82.50;;;;;;4885126;29;20671;-83
2023/01/22 09:58:16;;;;;;;17.92;10.95;;;3.60;82.70;;;;;;4908324;29;20229;-83
2023/01/22 10:00:56;;;;;;;11.27;6.65;;;3.60;82.60;;;;;;4912001;29;20774;-82
2023/01/22 10:03:59;;;;;;;21.80;12.60;;;3.70;82.30;;;;;;4904597;29;20201;-84
2023/01/22 10:06:39;;;;;;;13.93;9.35;;;3.60;82.20;;;;;;4891692;29;20241;-83
2023/01/22 10:09:14;;;;;;;36.85;18.00;;;3.70;82.40;;;;;;4907604;29;20205;-83
2023/01/22 10:11:52;;;;;;;24.02;13.30;;;3.70;82.30;;;;;;4910080;29;20203;-83
2023/01/22 11:16:25;;;;;;;8.57;7.20;;;3.60;82.40;;;;;;4360638;23;10000913;-82
2023/01/22 11:18:57;;;;;;;10.52;5.47;;;3.70;82.40;;;;;;4870278;29;20241;-79
2023/01/22 11:21:28;;;;;;;8.30;5.28;;;3.60;82.20;;;;;;4873674;29;20202;-80
2023/01/22 11:24:02;;;;;;;16.40;8.55;;;3.60;82.30;;;;;;4870475;29;20571;-82
2023/01/22 11:27:01;;;;;;;15.60;8.38;;;3.70;82.40;;;;;;4855957;29;20218;-80
2023/01/22 11:30:04;;;;;;;13.18;7.32;;;3.60;82.30;;;;;;4869835;29;20224;-80
2023/01/22 11:32:50;;;;;;;13.70;7.27;;;3.60;82.30;;;;;;3985344;29;10000367;-80
2023/01/22 13:23:02;;;;;;;16.27;8.70;;;4.00;81.80;;;;;;6120770;22;4122584;-82
2023/01/22 13:25:32;;;;;;;12.70;7.25;;;4.10;81.70;;;;;;6245135;22;20401;-80
2023/01/22 13:28:02;;;;;;;13.23;5.97;;;4.10;81.70;;;;;;6223796;23;20206;-83
2023/01/22 13:30:30;;;;;;;8.25;5.00;;;4.10;81.70;;;;;;6249559;23;20175;-81
2023/01/22 13:33:07;;;;;;;9.95;6.55;;;4.10;81.50;;;;;;6253313;23;20160;-83
2023/01/22 13:35:37;;;;;;;11.05;5.43;;;4.10;81.40;;;;;;6251191;23;20183;-81
2023/01/22 13:38:16;;;;;;;9.50;6.18;;;4.10;81.30;;;;;;6253088;22;20192;-83
2023/01/22 13:40:44;;;;;;;8.70;5.50;;;4.00;81.30;;;;;;6215605;23;20197;-82
2023/01/22 13:43:21;;;;;;;10.25;5.70;;;4.00;81.30;;;;;;6252193;23;20564;-86
2023/01/22 13:45:51;;;;;;;9.45;6.20;;;4.00;81.40;;;;;;6252485;23;20176;-84
2023/01/22 14:00:05;;;;;;;9.43;4.60;;;4.00;81.30;;;;;;6261117;22;20226;-82
2023/01/22 14:02:35;;;;;;;8.05;4.80;;;4.00;81.20;;;;;;6274754;22;20191;-81
2023/01/22 14:05:04;;;;;;;11.07;4.80;;;4.00;81.00;;;;;;6246511;22;20194;-81
2023/01/22 14:07:35;;;;;;;7.35;4.70;;;3.90;81.10;;;;;;6230598;23;20223;-80
2023/01/22 14:10:14;;;;;;;14.25;8.38;;;3.90;81.00;;;;;;6254210;23;20179;-82
2023/01/22 14:12:43;;;;;;;31.23;12.25;;;3.90;81.10;;;;;;6213415;23;20178;-80
2023/01/22 14:15:33;;;;;;;18.05;9.27;;;3.80;81.10;;;;;;6213715;23;20195;-82
2023/01/22 14:18:10;;;;;;;17.92;9.80;;;3.90;81.30;;;;;;6251480;22;21005;-80
2023/01/22 14:20:39;;;;;;;25.02;11.43;;;3.90;81.30;;;;;;6253138;23;20255;-81
2023/01/22 14:23:07;;;;;;;39.88;18.67;;;3.90;80.80;;;;;;6215167;23;20239;-82
2023/01/22 14:25:37;;;;;;;20.42;10.10;;;3.90;81.00;;;;;;6251786;23;20238;-81
2023/01/22 14:28:05;;;;;;;21.90;11.15;;;3.90;81.00;;;;;;6251556;22;20192;-80
2023/01/22 14:30:35;;;;;;;30.63;12.45;;;3.80;81.00;;;;;;6250158;23;20180;-80
2023/01/22 14:33:04;;;;;;;27.25;12.43;;;3.80;81.00;;;;;;6215080;23;20180;-80
2023/01/22 14:35:32;;;;;;;53.42;20.10;;;3.80;81.00;;;;;;6211194;23;20229;-83
2023/01/22 14:38:01;;;;;;;31.30;13.52;;;3.80;81.10;;;;;;6249795;22;20198;-83
2023/01/22 14:40:31;;;;;;;29.85;12.80;;;3.80;81.10;;;;;;6214004;23;20191;-82
2023/01/22 14:43:00;;;;;;;27.05;11.40;;;3.80;81.20;;;;;;6251662;23;20164;-83
2023/01/22 14:45:28;;;;;;;46.65;18.70;;;3.80;81.00;;;;;;6211997;23;20234;-82
2023/01/22 14:47:59;;;;;;;25.65;11.48;;;3.80;81.10;;;;;;6252179;22;20226;-82
2023/01/22 14:50:27;;;;;;;38.10;15.32;;;3.80;81.00;;;;;;6253117;23;20642;-81
2023/01/22 14:52:56;;;;;;;19.52;8.77;;;3.80;81.00;;;;;;6252881;23;20174;-82
2023/01/22 14:55:24;;;;;;;44.03;16.80;;;3.80;81.00;;;;;;6249497;23;20184;-81
2023/01/22 14:57:53;;;;;;;24.10;10.15;;;3.80;81.00;;;;;;6249981;22;20183;-83
2023/01/22 15:00:21;;;;;;;22.67;10.10;;;3.80;81.00;;;;;;6251844;23;20694;-84
2023/01/22 15:02:49;;;;;;;20.08;9.95;;;3.80;81.10;;;;;;6251886;23;20175;-79
2023/01/22 15:05:18;;;;;;;23.25;10.38;;;3.80;81.00;;;;;;6216288;23;20563;-79
2023/01/22 15:07:46;;;;;;;18.73;9.02;;;3.80;81.00;;;;;;6216948;23;20253;-82
2023/01/22 15:10:14;;;;;;;25.58;11.10;;;3.80;80.90;;;;;;6215464;23;20184;-80
2023/01/22 15:12:52;;;;;;;24.08;11.25;;;3.80;80.90;;;;;;6251741;23;20172;-80
2023/01/22 15:15:25;;;;;;;18.95;9.38;;;3.80;80.80;;;;;;6252352;23;20175;-82
2023/01/22 15:17:55;;;;;;;20.77;8.90;;;3.70;80.80;;;;;;6252942;22;20206;-82
2023/01/22 15:20:26;;;;;;;20.58;10.18;;;3.70;81.00;;;;;;6253568;23;20152;-81
2023/01/22 15:22:54;;;;;;;28.00;13.40;;;3.70;81.00;;;;;;6217200;23;20206;-81
2023/01/22 15:25:22;;;;;;;39.38;16.83;;;3.70;80.90;;;;;;6217117;23;20176;-81
2023/01/22 15:27:50;;;;;;;58.63;22.73;;;3.80;81.00;;;;;;6249336;22;20870;-82
2023/01/22 15:30:18;;;;;;;24.17;12.77;;;3.80;81.00;;;;;;6254039;23;20183;-82
2023/01/22 15:32:47;;;;;;;37.30;17.33;;;3.80;80.80;;;;;;6215542;23;20186;-81
2023/01/22 15:35:23;;;;;;;30.58;14.23;;;3.80;80.80;;;;;;6252278;23;20164;-80
2023/01/22 15:37:53;;;;;;;23.15;12.18;;;3.80;81.00;;;;;;6253739;22;20197;-80
2023/01/22 15:40:21;;;;;;;19.45;11.30;;;3.80;80.90;;;;;;6251998;23;20185;-83
2023/01/22 15:42:48;;;;;;;20.98;10.20;;;3.90;81.00;;;;;;6251063;23;20183;-81
2023/01/22 15:45:17;;;;;;;20.88;10.40;;;3.90;81.00;;;;;;6250725;23;20175;-81
2023/01/22 15:47:44;;;;;;;24.92;12.88;;;3.90;81.00;;;;;;6213993;23;20199;-81
2023/01/22 15:50:18;;;;;;;13.98;8.05;;;4.00;81.00;;;;;;6251076;23;20229;-81
2023/01/22 15:52:46;;;;;;;16.15;8.38;;;4.00;81.00;;;;;;6249898;23;20163;-82
2023/01/22 15:55:16;;;;;;;20.73;9.77;;;4.00;80.90;;;;;;6212842;23;20172;-80
2023/01/22 15:57:44;;;;;;;19.77;10.50;;;4.00;80.90;;;;;;6249891;22;20203;-82
2023/01/22 16:00:13;;;;;;;12.05;7.68;;;4.10;80.90;;;;;;6252622;23;20187;-81
2023/01/22 16:02:42;;;;;;;14.98;9.05;;;4.10;80.90;;;;;;6250919;23;20160;-83
2023/01/22 16:05:11;;;;;;;14.18;8.35;;;4.10;80.80;;;;;;6215489;23;20180;-85
2023/01/22 16:07:39;;;;;;;14.10;8.55;;;4.10;80.80;;;;;;6251819;22;20195;-81
2023/01/22 16:10:08;;;;;;;15.63;7.32;;;4.10;80.80;;;;;;6252243;23;20198;-80
2023/01/22 16:12:38;;;;;;;10.20;6.82;;;4.10;80.80;;;;;;6214346;23;20172;-81
2023/01/22 16:15:07;;;;;;;10.25;6.47;;;4.20;80.70;;;;;;6251971;23;20175;-80
2023/01/22 16:17:35;;;;;;;9.90;5.78;;;4.20;80.60;;;;;;6252029;22;20195;-81
2023/01/22 16:20:04;;;;;;;10.65;6.60;;;4.20;80.60;;;;;;6250779;23;20160;-80
2023/01/22 16:22:32;;;;;;;9.52;5.93;;;4.20;80.60;;;;;;6250591;23;20168;-82
2023/01/22 16:25:00;;;;;;;9.88;6.05;;;4.20;80.60;;;;;;6216266;23;20202;-81
2023/01/22 16:27:29;;;;;;;9.57;5.25;;;4.20;80.60;;;;;;6252171;22;20726;-80
2023/01/22 16:29:59;;;;;;;11.68;5.35;;;4.20;80.50;;;;;;6216264;23;20168;-82
2023/01/22 16:32:27;;;;;;;8.98;6.00;;;4.20;80.50;;;;;;6212895;23;20522;-81
2023/01/22 16:34:55;;;;;;;9.18;6.15;;;4.20;80.50;;;;;;6252751;23;20164;-82
2023/01/22 16:37:23;;;;;;;8.70;5.95;;;4.20;80.50;;;;;;6215856;23;20203;-81
2023/01/22 16:39:54;;;;;;;8.45;5.55;;;4.20;80.50;;;;;;6252232;23;20179;-81
2023/01/22 16:42:21;;;;;;;11.05;5.63;;;4.20;80.50;;;;;;6213561;23;20555;-80
2023/01/22 16:44:49;;;;;;;8.38;5.45;;;4.20;80.50;;;;;;6216097;23;20179;-81
2023/01/22 16:47:19;;;;;;;8.95;5.47;;;4.20;80.50;;;;;;6248887;22;20188;-83
2023/01/22 16:49:47;;;;;;;8.27;5.45;;;4.20;80.40;;;;;;6252401;23;20728;-80